createdAt,value
2023-11-30T00:01:10.669Z,8.50
2023-11-30T00:04:13.727Z,7.93
2023-11-30T00:07:16.697Z,7.33
2023-11-30T00:10:19.793Z,7.65
2023-11-30T00:13:22.755Z,7.50
2023-11-30T00:16:25.746Z,7.43
2023-11-30T00:19:28.758Z,7.80
2023-11-30T00:22:31.768Z,9.43
2023-11-30T00:25:34.953Z,8.85
2023-11-30T00:28:37.927Z,9.60
2023-11-30T00:31:41.044Z,10.23
2023-11-30T00:34:44.084Z,8.52
2023-11-30T00:37:47.064Z,8.03
2023-11-30T00:40:50.020Z,7.43
2023-11-30T00:43:53.036Z,7.95
2023-11-30T00:46:56.082Z,7.22
2023-11-30T00:49:59.088Z,7.38
2023-11-30T00:53:02.185Z,7.70
2023-11-30T00:56:05.593Z,6.72
2023-11-30T00:59:08.613Z,7.72
2023-11-30T01:02:11.656Z,7.78
2023-11-30T01:05:14.707Z,7.10
2023-11-30T01:08:17.742Z,6.40
2023-11-30T01:11:21.203Z,6.03
2023-11-30T01:14:24.211Z,7.47
2023-11-30T01:17:27.300Z,6.90
2023-11-30T01:20:30.676Z,5.53
2023-11-30T01:23:33.666Z,5.77
2023-11-30T01:26:36.713Z,4.57
2023-11-30T01:29:39.716Z,5.65
2023-11-30T01:32:42.750Z,6.15
2023-11-30T01:35:45.832Z,5.07
2023-11-30T01:38:49.005Z,5.63
2023-11-30T01:41:52.062Z,5.40
2023-11-30T01:44:55.140Z,5.47
2023-11-30T01:47:58.269Z,5.78
2023-11-30T01:51:01.974Z,5.03
2023-11-30T01:54:05.251Z,5.17
2023-11-30T01:57:08.279Z,5.22
2023-11-30T02:00:11.953Z,6.45
2023-11-30T02:03:16.871Z,6.90
2023-11-30T02:06:20.441Z,6.00
2023-11-30T02:09:23.555Z,6.67
2023-11-30T02:12:26.797Z,6.82
2023-11-30T02:15:30.052Z,6.57
2023-11-30T02:18:33.431Z,4.78
2023-11-30T02:21:36.462Z,5.97
2023-11-30T02:24:39.459Z,5.30
2023-11-30T02:27:42.440Z,4.82
2023-11-30T02:30:49.503Z,5.03
2023-11-30T02:33:52.543Z,5.95
2023-11-30T02:36:55.613Z,4.75
2023-11-30T02:39:58.821Z,5.03
2023-11-30T02:43:01.793Z,4.45
2023-11-30T02:46:08.003Z,4.82
2023-11-30T02:49:11.011Z,4.88
2023-11-30T02:52:14.091Z,4.68
2023-11-30T02:55:17.200Z,5.33
2023-11-30T02:58:20.166Z,5.10
2023-11-30T03:01:23.160Z,5.22
2023-11-30T03:04:26.252Z,4.15
2023-11-30T03:07:29.265Z,4.68
2023-11-30T03:10:32.278Z,5.03
2023-11-30T03:13:35.302Z,5.07
2023-11-30T03:16:38.349Z,4.50
2023-11-30T03:19:41.552Z,4.20
2023-11-30T03:22:44.549Z,3.88
2023-11-30T03:25:47.515Z,4.40
2023-11-30T03:28:51.029Z,4.22
2023-11-30T03:31:54.075Z,3.05
2023-11-30T03:34:57.121Z,3.95
2023-11-30T03:38:00.101Z,3.28
2023-11-30T03:41:03.252Z,4.47
2023-11-30T03:44:06.240Z,4.00
2023-11-30T03:47:09.237Z,4.25
2023-11-30T03:50:12.254Z,4.88
2023-11-30T03:53:15.298Z,4.53
2023-11-30T03:56:18.482Z,4.50
2023-11-30T03:59:21.464Z,4.40
2023-11-30T04:02:25.613Z,5.28
2023-11-30T04:05:28.652Z,4.60
2023-11-30T04:08:31.667Z,5.60
2023-11-30T04:11:34.762Z,5.00
2023-11-30T04:14:38.007Z,4.10
2023-11-30T04:17:41.047Z,4.10
2023-11-30T04:20:44.066Z,5.13
2023-11-30T04:23:47.124Z,5.15
2023-11-30T04:26:50.174Z,4.73
2023-11-30T04:29:53.173Z,4.78
2023-11-30T04:32:56.317Z,5.10
2023-11-30T04:36:02.461Z,5.53
2023-11-30T04:39:06.975Z,5.28
2023-11-30T04:42:10.092Z,7.43
2023-11-30T04:45:13.185Z,5.65
2023-11-30T04:48:16.276Z,5.15
2023-11-30T04:51:19.429Z,6.75
2023-11-30T04:54:22.692Z,5.78
2023-11-30T04:57:25.811Z,5.77
2023-11-30T05:00:28.890Z,5.03
2023-11-30T05:03:32.077Z,5.05
2023-11-30T05:06:35.204Z,5.85
2023-11-30T05:09:38.284Z,6.80
2023-11-30T05:12:41.353Z,6.13
2023-11-30T05:15:46.358Z,6.30
2023-11-30T05:18:50.411Z,5.65
2023-11-30T05:21:53.449Z,6.10
2023-11-30T05:24:56.451Z,6.32
2023-11-30T05:27:59.618Z,6.60
2023-11-30T05:31:02.651Z,7.93
2023-11-30T05:34:05.722Z,6.72
2023-11-30T05:37:08.701Z,6.50
2023-11-30T05:40:12.892Z,6.25
2023-11-30T05:43:16.494Z,6.67
2023-11-30T05:46:22.276Z,7.05
2023-11-30T05:49:25.337Z,7.18
2023-11-30T05:52:28.336Z,5.95
2023-11-30T05:55:31.387Z,5.95
2023-11-30T05:58:34.362Z,6.43
2023-11-30T06:01:37.398Z,6.57
2023-11-30T06:04:49.437Z,6.97
2023-11-30T06:07:52.576Z,7.30
2023-11-30T06:10:55.597Z,7.60
2023-11-30T06:13:59.966Z,6.90
2023-11-30T06:17:04.309Z,8.00
2023-11-30T06:20:11.509Z,8.75
2023-11-30T06:23:14.753Z,9.07
2023-11-30T06:26:17.790Z,8.63
2023-11-30T06:29:21.021Z,8.50
2023-11-30T06:32:24.077Z,8.85
2023-11-30T06:35:27.245Z,9.35
2023-11-30T06:38:30.252Z,9.55
2023-11-30T06:41:33.273Z,9.05
2023-11-30T06:44:36.309Z,9.77
2023-11-30T06:47:39.390Z,9.07
2023-11-30T06:50:42.437Z,9.27
2023-11-30T06:53:45.580Z,10.48
2023-11-30T06:56:48.783Z,11.35
2023-11-30T06:59:52.006Z,10.20
2023-11-30T07:02:55.514Z,9.52
2023-11-30T07:05:59.084Z,9.50
2023-11-30T07:09:02.217Z,9.85
2023-11-30T07:12:05.603Z,10.02
2023-11-30T07:15:09.276Z,10.60
2023-11-30T07:18:15.077Z,9.18
2023-11-30T07:21:18.196Z,10.38
2023-11-30T07:24:21.610Z,8.70
2023-11-30T07:27:27.793Z,9.70
2023-11-30T07:30:31.004Z,9.53
2023-11-30T07:33:38.999Z,9.50
2023-11-30T07:36:42.247Z,10.73
2023-11-30T07:39:45.648Z,10.10
2023-11-30T07:42:51.020Z,9.68
2023-11-30T07:45:54.118Z,9.03
2023-11-30T07:48:57.311Z,10.70
2023-11-30T07:52:00.332Z,10.63
2023-11-30T07:55:05.598Z,11.73
2023-11-30T07:58:09.301Z,11.10
2023-11-30T08:01:12.381Z,10.30
2023-11-30T08:04:15.600Z,12.32
2023-11-30T08:07:19.633Z,11.55
2023-11-30T08:10:22.819Z,10.43
2023-11-30T08:13:25.792Z,9.23
2023-11-30T08:16:28.848Z,10.20
2023-11-30T08:19:31.905Z,10.15
2023-11-30T08:22:34.923Z,9.88
2023-11-30T08:25:37.944Z,12.23
2023-11-30T08:28:40.974Z,11.65
2023-11-30T08:31:44.081Z,11.67
2023-11-30T08:34:47.134Z,12.65
2023-11-30T08:37:50.213Z,12.02
2023-11-30T08:40:53.629Z,12.80
2023-11-30T08:43:56.788Z,11.45
2023-11-30T08:46:59.944Z,10.03
2023-11-30T08:50:05.377Z,11.30
2023-11-30T08:53:08.447Z,13.25
2023-11-30T08:56:11.972Z,13.32
2023-11-30T08:59:15.058Z,12.25
2023-11-30T09:02:19.996Z,11.67
2023-11-30T09:05:23.309Z,11.02
2023-11-30T09:08:26.420Z,11.15
2023-11-30T09:11:34.557Z,11.55
2023-11-30T09:14:37.654Z,11.35
2023-11-30T09:17:41.414Z,10.80
2023-11-30T09:20:44.562Z,11.07
2023-11-30T09:23:47.734Z,11.60
2023-11-30T09:26:54.527Z,10.93
2023-11-30T09:29:57.858Z,12.20
2023-11-30T09:33:00.908Z,12.87
2023-11-30T09:36:04.183Z,14.20
2023-11-30T09:39:10.450Z,12.57
2023-11-30T09:42:17.451Z,12.55
2023-11-30T09:45:20.732Z,13.73
2023-11-30T09:48:23.850Z,12.73
2023-11-30T09:51:29.143Z,12.63
2023-11-30T09:54:32.889Z,11.80
2023-11-30T09:57:36.074Z,12.55
2023-11-30T10:00:39.180Z,12.35
2023-11-30T10:03:43.209Z,12.33
2023-11-30T10:06:50.400Z,13.52
2023-11-30T10:09:53.521Z,14.07
2023-11-30T10:12:56.665Z,13.57
2023-11-30T10:15:59.847Z,14.50
2023-11-30T10:19:08.109Z,14.87
2023-11-30T10:22:11.736Z,13.68
2023-11-30T10:25:15.305Z,13.45
2023-11-30T10:28:20.888Z,11.80
2023-11-30T10:31:24.226Z,12.50
2023-11-30T10:34:32.967Z,12.23
2023-11-30T10:37:49.297Z,13.85
2023-11-30T10:40:56.940Z,16.85
2023-11-30T10:44:00.008Z,12.20
2023-11-30T10:47:03.529Z,11.73
2023-11-30T10:50:07.382Z,10.50
2023-11-30T10:53:35.566Z,11.48
2023-11-30T10:56:38.611Z,11.85
2023-11-30T10:59:46.905Z,13.07
2023-11-30T11:02:50.326Z,12.77
2023-11-30T11:05:54.594Z,11.70
2023-11-30T11:09:08.666Z,14.27
2023-11-30T11:12:26.267Z,12.88
2023-11-30T11:15:30.309Z,12.48
2023-11-30T11:18:34.291Z,13.65
2023-11-30T11:21:38.518Z,12.50
2023-11-30T11:24:41.919Z,12.43
2023-11-30T11:27:44.954Z,12.15
2023-11-30T11:30:49.204Z,9.27
2023-11-30T11:33:52.494Z,10.93
2023-11-30T11:36:55.514Z,10.47
2023-11-30T11:39:59.141Z,11.25
2023-11-30T11:43:02.289Z,10.25
2023-11-30T11:46:06.338Z,8.95
2023-11-30T11:49:09.461Z,9.18
2023-11-30T11:52:18.972Z,8.67
2023-11-30T11:55:24.951Z,8.68
2023-11-30T11:58:29.668Z,9.52
2023-11-30T12:01:39.646Z,10.88
2023-11-30T12:04:42.847Z,11.02
2023-11-30T12:07:53.012Z,10.30
2023-11-30T12:10:57.169Z,10.90
2023-11-30T12:14:00.248Z,10.52
2023-11-30T12:17:03.362Z,9.60
2023-11-30T12:20:07.006Z,8.93
2023-11-30T12:23:10.051Z,10.33
2023-11-30T12:26:15.108Z,9.20
2023-11-30T12:29:18.248Z,10.70
2023-11-30T12:32:21.343Z,9.55
2023-11-30T12:35:25.874Z,9.07
2023-11-30T12:38:32.193Z,9.30
2023-11-30T12:41:35.376Z,8.43
2023-11-30T12:44:38.792Z,8.18
2023-11-30T12:47:42.483Z,9.23
2023-11-30T12:50:46.717Z,10.70
2023-11-30T12:53:52.149Z,10.40
2023-11-30T12:56:55.458Z,34.03
2023-11-30T12:59:58.451Z,19.52
2023-11-30T13:03:01.668Z,11.48
2023-11-30T13:06:04.948Z,8.98
2023-11-30T13:09:15.260Z,9.67
2023-11-30T13:12:18.388Z,9.43
2023-11-30T13:15:21.671Z,9.40
2023-11-30T13:18:27.089Z,12.02
2023-11-30T13:21:30.563Z,11.52
2023-11-30T13:24:33.674Z,9.47
2023-11-30T13:27:36.761Z,9.57
2023-11-30T13:30:39.854Z,6.65
2023-11-30T13:33:42.950Z,8.95
2023-11-30T13:36:46.384Z,9.63
2023-11-30T13:39:49.388Z,9.37
2023-11-30T13:42:52.787Z,8.45
2023-11-30T13:45:55.803Z,8.20
2023-11-30T13:48:59.889Z,9.07
2023-11-30T13:52:04.098Z,8.40
2023-11-30T13:55:07.804Z,16.20
2023-11-30T13:58:11.312Z,11.95
2023-11-30T14:01:14.456Z,8.43
2023-11-30T14:04:17.976Z,7.28
2023-11-30T14:07:21.504Z,6.65
2023-11-30T14:10:24.845Z,7.30
2023-11-30T14:13:27.884Z,7.35
2023-11-30T14:16:30.885Z,7.75
2023-11-30T14:19:34.862Z,11.43
2023-11-30T14:22:38.049Z,10.38
2023-11-30T14:25:41.801Z,7.90
2023-11-30T14:28:49.539Z,8.50
2023-11-30T14:31:52.702Z,7.72
2023-11-30T14:34:55.751Z,7.60
2023-11-30T14:37:58.821Z,7.00
2023-11-30T14:41:01.802Z,7.57
2023-11-30T14:44:05.601Z,7.07
2023-11-30T14:47:10.938Z,6.45
2023-11-30T14:50:17.687Z,8.60
2023-11-30T14:53:20.779Z,8.07
2023-11-30T14:56:26.668Z,7.73
2023-11-30T14:59:29.865Z,8.30
2023-11-30T15:02:33.050Z,9.48
2023-11-30T15:05:36.352Z,7.63
2023-11-30T15:08:39.499Z,9.07
2023-11-30T15:11:44.487Z,8.93
2023-11-30T15:14:47.606Z,9.45
2023-11-30T15:17:50.805Z,10.93
2023-11-30T15:20:54.067Z,13.65
2023-11-30T15:23:57.213Z,11.90
2023-11-30T15:27:00.358Z,10.33
2023-11-30T15:30:05.322Z,11.05
2023-11-30T15:33:12.701Z,8.95
2023-11-30T15:36:16.626Z,7.75
2023-11-30T15:39:23.264Z,8.25
2023-11-30T15:42:26.979Z,5.23
2023-11-30T15:45:30.257Z,8.63
2023-11-30T15:48:33.843Z,8.57
2023-11-30T15:51:43.295Z,7.57
2023-11-30T15:54:46.631Z,8.23
2023-11-30T15:57:49.982Z,8.93
2023-11-30T16:00:54.257Z,7.10
2023-11-30T16:03:58.142Z,7.00
2023-11-30T16:07:01.579Z,6.10
2023-11-30T16:10:05.842Z,6.55
2023-11-30T16:13:09.010Z,5.77
2023-11-30T16:16:13.622Z,8.27
2023-11-30T16:19:16.842Z,9.55
2023-11-30T16:22:20.405Z,8.23
2023-11-30T16:25:24.153Z,9.00
2023-11-30T16:28:27.293Z,8.07
2023-11-30T16:31:30.402Z,9.85
2023-11-30T16:34:33.584Z,10.95
2023-11-30T16:37:36.935Z,10.23
2023-11-30T16:40:39.971Z,8.73
2023-11-30T16:43:43.136Z,8.67
2023-11-30T16:46:46.596Z,8.30
2023-11-30T16:49:49.932Z,8.25
2023-11-30T16:52:53.110Z,8.18
2023-11-30T16:55:56.554Z,8.10
2023-11-30T16:59:00.706Z,6.30
2023-11-30T17:02:04.335Z,6.63
2023-11-30T17:05:08.350Z,6.75
2023-11-30T17:08:11.497Z,7.75
2023-11-30T17:11:14.692Z,7.38
2023-11-30T17:14:17.748Z,6.87
2023-11-30T17:17:20.871Z,7.40
2023-11-30T17:20:23.895Z,7.85
2023-11-30T17:23:27.284Z,6.03
2023-11-30T17:26:31.641Z,6.07
2023-11-30T17:29:38.958Z,5.33
2023-11-30T17:32:42.108Z,5.90
2023-11-30T17:35:45.360Z,5.45
2023-11-30T17:38:48.480Z,6.45
2023-11-30T17:41:51.510Z,6.63
2023-11-30T17:44:54.572Z,9.57
2023-11-30T17:47:57.614Z,8.45
2023-11-30T17:51:00.626Z,7.78
2023-11-30T17:54:03.690Z,8.75
2023-11-30T17:57:06.791Z,7.35
2023-11-30T18:00:11.522Z,8.00
2023-11-30T18:03:17.496Z,5.75
2023-11-30T18:06:20.542Z,5.10
2023-11-30T18:09:25.042Z,5.32
2023-11-30T18:12:29.651Z,4.57
2023-11-30T18:15:32.667Z,4.67
2023-11-30T18:18:35.760Z,6.20
2023-11-30T18:21:38.843Z,9.25
2023-11-30T18:24:41.956Z,7.18
2023-11-30T18:27:45.065Z,10.10
2023-11-30T18:30:48.185Z,7.97
2023-11-30T18:33:51.830Z,7.55
2023-11-30T18:36:55.106Z,8.98
2023-11-30T18:39:58.262Z,10.05
2023-11-30T18:43:01.411Z,9.23
2023-11-30T18:46:04.596Z,10.80
2023-11-30T18:49:07.687Z,8.93
2023-11-30T18:52:10.755Z,8.25
2023-11-30T18:55:13.733Z,7.38
2023-11-30T18:58:17.412Z,8.50
2023-11-30T19:01:20.729Z,8.50
2023-11-30T19:04:23.719Z,7.22
2023-11-30T19:07:26.837Z,6.72
2023-11-30T19:10:29.858Z,8.20
2023-11-30T19:13:32.879Z,8.75
2023-11-30T19:16:37.000Z,8.23
2023-11-30T19:19:40.040Z,6.20
2023-11-30T19:22:43.125Z,6.05
2023-11-30T19:25:46.097Z,5.22
2023-11-30T19:28:49.166Z,5.30
2023-11-30T19:31:52.253Z,5.03
2023-11-30T19:34:55.265Z,5.35
2023-11-30T19:37:58.327Z,5.05
2023-11-30T19:41:01.846Z,5.25
2023-11-30T19:44:05.060Z,4.40
2023-11-30T19:47:08.537Z,5.00
2023-11-30T19:50:11.637Z,5.10
2023-11-30T19:53:14.686Z,9.80
2023-11-30T19:56:17.905Z,9.80
2023-11-30T19:59:21.484Z,8.23
2023-11-30T20:02:24.561Z,8.40
2023-11-30T20:05:27.654Z,7.93
2023-11-30T20:08:30.669Z,6.85
2023-11-30T20:11:33.654Z,7.03
2023-11-30T20:14:36.649Z,6.68
2023-11-30T20:17:39.678Z,7.00
2023-11-30T20:20:42.724Z,7.57
2023-11-30T20:23:46.054Z,8.30
2023-11-30T20:26:49.851Z,7.47
2023-11-30T20:29:52.951Z,7.03
2023-11-30T20:32:56.140Z,6.87
2023-11-30T20:35:59.216Z,7.35
2023-11-30T20:39:02.225Z,7.20
2023-11-30T20:42:05.873Z,6.82
2023-11-30T20:45:09.386Z,6.85
2023-11-30T20:48:13.765Z,7.10
2023-11-30T20:51:19.234Z,6.80
2023-11-30T20:54:22.189Z,7.45
2023-11-30T20:57:25.720Z,6.97
2023-11-30T21:00:28.772Z,7.78
2023-11-30T21:03:32.030Z,7.67
2023-11-30T21:06:37.964Z,6.95
2023-11-30T21:09:41.091Z,6.05
2023-11-30T21:12:44.180Z,6.68
2023-11-30T21:15:47.528Z,6.05
2023-11-30T21:18:51.582Z,5.37
2023-11-30T21:21:54.749Z,6.25
2023-11-30T21:24:57.780Z,4.63
2023-11-30T21:28:00.878Z,5.15
2023-11-30T21:31:04.086Z,5.97
2023-11-30T21:34:07.207Z,5.70
2023-11-30T21:37:10.271Z,6.88
2023-11-30T21:40:13.603Z,7.55
2023-11-30T21:43:16.613Z,6.40
2023-11-30T21:46:19.662Z,5.80
2023-11-30T21:49:22.704Z,6.80
2023-11-30T21:52:25.804Z,6.13
2023-11-30T21:55:28.819Z,6.75
2023-11-30T21:58:33.371Z,6.35
2023-11-30T22:01:36.550Z,7.18
2023-11-30T22:04:40.283Z,7.17
2023-11-30T22:07:43.356Z,7.00
2023-11-30T22:10:46.511Z,7.97
2023-11-30T22:13:49.504Z,7.60
2023-11-30T22:16:52.546Z,6.78
2023-11-30T22:19:55.711Z,7.37
2023-11-30T22:22:58.734Z,6.93
2023-11-30T22:26:04.418Z,6.50
2023-11-30T22:29:07.825Z,6.80
2023-11-30T22:32:10.971Z,5.80
2023-11-30T22:35:14.065Z,7.27
2023-11-30T22:38:17.098Z,6.93
2023-11-30T22:41:20.070Z,6.35
2023-11-30T22:44:23.085Z,6.38
2023-11-30T22:47:26.167Z,6.07
2023-11-30T22:50:29.186Z,5.63
2023-11-30T22:53:32.189Z,7.18
2023-11-30T22:56:35.217Z,7.75
2023-11-30T22:59:38.310Z,6.13
2023-11-30T23:02:41.621Z,6.82
2023-11-30T23:05:45.213Z,6.10
2023-11-30T23:08:48.255Z,6.63
2023-11-30T23:11:51.276Z,6.72
2023-11-30T23:14:54.260Z,7.00
2023-11-30T23:17:57.294Z,6.10
2023-11-30T23:21:00.404Z,6.50
2023-11-30T23:24:03.574Z,6.30
2023-11-30T23:27:06.594Z,6.57
2023-11-30T23:30:09.878Z,5.97
2023-11-30T23:33:13.031Z,5.70
2023-11-30T23:36:16.130Z,7.73
2023-11-30T23:39:19.094Z,7.38
2023-11-30T23:42:22.112Z,7.85
2023-11-30T23:45:25.336Z,7.30
2023-11-30T23:48:28.484Z,6.53
2023-11-30T23:51:31.525Z,7.70
2023-11-30T23:54:34.610Z,6.93
2023-11-30T23:57:37.814Z,6.55
